createdAt,value
2023-05-17T00:00:21.781Z,3.30
2023-05-17T00:02:50.406Z,3.30
2023-05-17T00:05:19.012Z,3.90
2023-05-17T00:07:48.642Z,3.67
2023-05-17T00:10:17.246Z,3.88
2023-05-17T00:12:47.396Z,3.50
2023-05-17T00:15:15.903Z,3.17
2023-05-17T00:17:44.689Z,3.40
2023-05-17T00:20:13.770Z,3.40
2023-05-17T00:22:43.481Z,3.50
2023-05-17T00:25:11.996Z,3.20
2023-05-17T00:27:40.643Z,3.78
2023-05-17T00:30:11.062Z,3.67
2023-05-17T00:32:39.685Z,3.47
2023-05-17T00:35:08.775Z,4.22
2023-05-17T00:37:37.362Z,4.28
2023-05-17T00:40:06.408Z,4.10
2023-05-17T00:42:34.944Z,3.80
2023-05-17T00:45:03.491Z,4.05
2023-05-17T00:47:33.571Z,3.58
2023-05-17T00:50:02.257Z,3.85
2023-05-17T00:52:30.832Z,4.05
2023-05-17T00:54:59.506Z,3.95
2023-05-17T00:57:29.367Z,4.22
2023-05-17T00:59:57.953Z,3.65
2023-05-17T01:02:26.569Z,3.65
2023-05-17T01:04:56.469Z,4.18
2023-05-17T01:07:25.081Z,3.67
2023-05-17T01:09:53.708Z,3.95
2023-05-17T01:12:26.651Z,3.85
2023-05-17T01:15:10.555Z,4.85
2023-05-17T01:17:42.907Z,5.28
2023-05-17T01:20:18.695Z,4.28
2023-05-17T01:22:53.177Z,5.40
2023-05-17T01:25:36.977Z,4.18
2023-05-17T01:28:07.151Z,4.65
2023-05-17T01:30:37.099Z,5.10
2023-05-17T01:33:06.492Z,4.20
2023-05-17T01:35:35.108Z,4.93
2023-05-17T01:38:03.629Z,4.35
2023-05-17T01:40:34.024Z,5.15
2023-05-17T01:43:09.371Z,5.03
2023-05-17T01:45:42.239Z,4.90
2023-05-17T01:48:16.578Z,4.32
2023-05-17T01:50:46.358Z,4.50
2023-05-17T01:53:20.385Z,4.55
2023-05-17T01:55:51.960Z,5.03
2023-05-17T01:58:23.036Z,5.22
2023-05-17T02:00:55.548Z,5.30
2023-05-17T02:03:24.337Z,5.90
2023-05-17T02:05:52.815Z,5.07
2023-05-17T02:08:21.934Z,5.43
2023-05-17T02:10:50.564Z,5.57
2023-05-17T02:13:19.084Z,4.75
2023-05-17T02:15:47.585Z,6.03
2023-05-17T02:18:17.833Z,5.88
2023-05-17T02:20:46.556Z,5.45
2023-05-17T02:23:15.059Z,6.28
2023-05-17T02:25:43.545Z,5.68
2023-05-17T02:28:12.296Z,6.43
2023-05-17T02:30:41.632Z,7.00
2023-05-17T02:33:10.518Z,6.13
2023-05-17T02:35:40.544Z,7.32
2023-05-17T02:38:09.099Z,6.45
2023-05-17T02:40:37.581Z,7.38
2023-05-17T02:43:06.469Z,6.07
2023-05-17T02:45:34.988Z,6.85
2023-05-17T02:48:03.521Z,6.75
2023-05-17T02:50:32.083Z,7.05
2023-05-17T02:53:02.262Z,6.63
2023-05-17T02:55:30.979Z,6.78
2023-05-17T02:57:59.726Z,5.85
2023-05-17T03:00:28.467Z,7.05
2023-05-17T03:02:57.097Z,6.13
2023-05-17T03:05:25.680Z,6.50
2023-05-17T03:07:54.266Z,6.00
2023-05-17T03:10:24.279Z,6.60
2023-05-17T03:12:52.850Z,6.68
2023-05-17T03:15:21.543Z,6.50
2023-05-17T03:17:50.095Z,6.47
2023-05-17T03:20:19.073Z,6.97
2023-05-17T03:22:47.551Z,7.60
2023-05-17T03:25:16.206Z,7.43
2023-05-17T03:27:46.162Z,6.55
2023-05-17T03:30:14.969Z,6.60
2023-05-17T03:32:43.899Z,7.20
2023-05-17T03:35:12.538Z,7.30
2023-05-17T03:37:41.074Z,7.25
2023-05-17T03:40:10.150Z,7.05
2023-05-17T03:42:38.724Z,6.68
2023-05-17T03:45:09.479Z,6.93
2023-05-17T03:47:38.030Z,6.95
2023-05-17T03:50:07.188Z,7.18
2023-05-17T03:52:35.761Z,7.35
2023-05-17T03:55:04.314Z,8.02
2023-05-17T03:57:33.085Z,7.15
2023-05-17T04:00:01.736Z,7.07
2023-05-17T04:02:31.639Z,7.07
2023-05-17T04:05:00.741Z,7.70
2023-05-17T04:07:29.683Z,7.30
2023-05-17T04:10:00.081Z,8.38
2023-05-17T04:12:28.633Z,9.68
2023-05-17T04:14:57.224Z,9.15
2023-05-17T04:17:25.727Z,10.25
2023-05-17T04:19:55.950Z,9.45
2023-05-17T04:22:24.577Z,9.68
2023-05-17T04:24:53.174Z,9.25
2023-05-17T04:27:22.690Z,8.18
2023-05-17T04:29:51.419Z,7.55
2023-05-17T04:32:19.954Z,7.82
2023-05-17T04:34:48.484Z,8.23
2023-05-17T04:37:18.434Z,9.55
2023-05-17T04:39:46.881Z,8.80
2023-05-17T04:42:15.440Z,10.18
2023-05-17T04:44:43.937Z,9.35
2023-05-17T04:47:12.552Z,9.23
2023-05-17T04:49:41.793Z,8.90
2023-05-17T04:52:10.482Z,8.13
2023-05-17T04:54:40.712Z,9.32
2023-05-17T04:57:09.211Z,10.05
2023-05-17T04:59:37.798Z,10.70
2023-05-17T05:02:07.004Z,12.10
2023-05-17T05:04:35.765Z,13.13
2023-05-17T05:07:04.538Z,15.55
2023-05-17T05:09:33.055Z,14.23
2023-05-17T05:12:03.015Z,14.15
2023-05-17T05:14:31.716Z,14.48
2023-05-17T05:17:00.248Z,13.27
2023-05-17T05:19:28.805Z,12.38
2023-05-17T05:21:57.458Z,10.40
2023-05-17T05:24:26.102Z,10.07
2023-05-17T05:26:54.761Z,8.93
2023-05-17T05:29:24.817Z,8.18
2023-05-17T05:31:53.390Z,6.25
2023-05-17T05:34:21.910Z,6.88
2023-05-17T05:36:50.618Z,6.10
2023-05-17T05:39:19.247Z,6.22
2023-05-17T05:41:47.857Z,5.78
2023-05-17T05:44:16.348Z,5.20
2023-05-17T05:46:46.355Z,5.65
2023-05-17T05:49:14.944Z,5.38
2023-05-17T05:51:43.663Z,5.30
2023-05-17T05:54:12.258Z,4.55
2023-05-17T05:56:40.789Z,5.38
2023-05-17T05:59:09.327Z,4.78
2023-05-17T06:01:38.184Z,4.28
2023-05-17T06:04:08.228Z,4.30
2023-05-17T06:06:37.324Z,3.30
2023-05-17T06:09:07.180Z,4.20
2023-05-17T06:11:35.901Z,4.63
2023-05-17T06:14:04.444Z,3.90
2023-05-17T06:16:33.072Z,3.22
2023-05-17T06:19:01.796Z,3.47
2023-05-17T06:21:32.390Z,3.50
2023-05-17T06:24:02.819Z,3.45
2023-05-17T06:26:32.703Z,3.20
2023-05-17T06:29:01.334Z,3.20
2023-05-17T06:31:29.933Z,3.35
2023-05-17T06:33:58.668Z,3.53
2023-05-17T06:36:27.298Z,3.25
2023-05-17T06:38:57.596Z,2.92
2023-05-17T06:41:26.097Z,3.08
2023-05-17T06:43:54.655Z,3.10
2023-05-17T06:46:23.178Z,4.00
2023-05-17T06:48:51.751Z,3.60
2023-05-17T06:51:20.344Z,3.45
2023-05-17T06:53:48.866Z,3.72
2023-05-17T06:56:18.739Z,2.70
2023-05-17T06:58:47.490Z,3.00
2023-05-17T07:01:16.963Z,2.95
2023-05-17T07:03:45.707Z,3.17
2023-05-17T07:06:14.394Z,2.92
2023-05-17T07:08:43.045Z,3.35
2023-05-17T07:11:11.879Z,3.00
2023-05-17T07:13:41.827Z,2.97
2023-05-17T07:16:10.482Z,2.90
2023-05-17T07:18:39.152Z,2.78
2023-05-17T07:21:07.829Z,2.47
2023-05-17T07:23:36.589Z,2.65
2023-05-17T07:26:05.145Z,2.30
2023-05-17T07:28:33.681Z,2.38
2023-05-17T07:31:03.621Z,2.60
2023-05-17T07:33:32.220Z,2.88
2023-05-17T07:36:00.834Z,2.80
2023-05-17T07:38:29.849Z,2.55
2023-05-17T07:40:58.782Z,2.33
2023-05-17T07:43:27.396Z,3.20
2023-05-17T07:45:56.174Z,2.58
2023-05-17T07:48:26.778Z,2.40
2023-05-17T07:50:56.104Z,3.40
2023-05-17T07:53:24.700Z,2.85
2023-05-17T07:55:53.563Z,3.05
2023-05-17T07:58:22.248Z,3.25
2023-05-17T08:00:50.986Z,3.00
2023-05-17T08:03:19.644Z,2.45
2023-05-17T08:05:49.669Z,2.47
2023-05-17T08:08:18.207Z,2.58
2023-05-17T08:10:46.719Z,3.15
2023-05-17T08:13:15.388Z,2.88
2023-05-17T08:15:43.911Z,2.65
2023-05-17T08:18:12.813Z,3.00
2023-05-17T08:20:41.418Z,2.60
2023-05-17T08:23:11.313Z,3.03
2023-05-17T08:25:39.875Z,2.75
2023-05-17T08:28:08.572Z,3.00
2023-05-17T08:30:37.145Z,2.97
2023-05-17T08:33:05.960Z,2.70
2023-05-17T08:35:37.652Z,2.40
2023-05-17T08:38:06.151Z,2.63
2023-05-17T08:40:36.260Z,2.17
2023-05-17T08:43:05.144Z,2.92
2023-05-17T08:45:34.019Z,2.10
2023-05-17T08:48:03.459Z,2.53
2023-05-17T08:50:33.004Z,2.72
2023-05-17T08:53:02.049Z,2.50
2023-05-17T08:55:33.228Z,2.65
2023-05-17T08:58:04.177Z,2.85
2023-05-17T09:00:35.079Z,3.13
2023-05-17T09:03:04.004Z,3.25
2023-05-17T09:05:32.848Z,2.83
2023-05-17T09:08:01.735Z,3.17
2023-05-17T09:10:31.710Z,3.40
2023-05-17T09:13:00.432Z,2.95
2023-05-17T09:15:31.081Z,2.75
2023-05-17T09:17:59.957Z,3.22
2023-05-17T09:20:35.510Z,3.40
2023-05-17T09:23:04.371Z,2.97
2023-05-17T09:25:33.422Z,2.50
2023-05-17T09:28:07.690Z,2.50
2023-05-17T09:30:39.572Z,2.90
2023-05-17T09:33:08.317Z,2.40
2023-05-17T09:35:37.236Z,2.75
2023-05-17T09:38:07.861Z,2.75
2023-05-17T09:40:39.461Z,2.50
2023-05-17T09:43:08.055Z,2.28
2023-05-17T09:45:38.020Z,2.28
2023-05-17T09:48:15.930Z,2.60
2023-05-17T09:50:50.877Z,2.38
2023-05-17T09:53:26.363Z,2.25
2023-05-17T09:55:55.564Z,2.58
2023-05-17T09:58:24.392Z,2.70
2023-05-17T10:00:55.652Z,2.70
2023-05-17T10:03:24.310Z,2.33
2023-05-17T10:05:54.426Z,2.47
2023-05-17T10:08:26.007Z,2.33
2023-05-17T10:10:55.016Z,2.50
2023-05-17T10:13:25.864Z,2.53
2023-05-17T10:15:56.109Z,2.58
2023-05-17T10:18:25.298Z,2.25
2023-05-17T10:20:54.037Z,2.03
2023-05-17T10:23:23.246Z,1.90
2023-05-17T10:25:51.950Z,2.35
2023-05-17T10:28:22.238Z,2.63
2023-05-17T10:30:52.056Z,2.30
2023-05-17T10:33:23.018Z,2.67
2023-05-17T10:35:52.180Z,2.40
2023-05-17T10:38:23.977Z,2.30
2023-05-17T10:40:55.480Z,2.28
2023-05-17T10:43:24.983Z,3.15
2023-05-17T10:45:53.526Z,2.10
2023-05-17T10:48:23.516Z,2.22
2023-05-17T10:51:01.085Z,2.28
2023-05-17T10:53:30.231Z,2.20
2023-05-17T10:55:58.706Z,2.30
2023-05-17T10:59:57.704Z,2.85
2023-05-17T11:02:26.711Z,2.70
2023-05-17T11:04:56.578Z,2.13
2023-05-17T11:07:29.657Z,2.72
2023-05-17T11:10:05.986Z,2.35
2023-05-17T11:12:38.493Z,2.78
2023-05-17T11:15:11.044Z,2.00
2023-05-17T11:17:50.928Z,2.30
2023-05-17T11:20:33.842Z,2.50
2023-05-17T11:23:04.417Z,2.40
2023-05-17T11:25:35.683Z,2.75
2023-05-17T11:28:09.159Z,2.22
2023-05-17T11:30:42.634Z,1.90
2023-05-17T11:33:21.327Z,2.35
2023-05-17T11:35:58.857Z,2.22
2023-05-17T11:38:32.582Z,2.95
2023-05-17T11:41:26.617Z,2.83
2023-05-17T11:43:55.944Z,2.40
2023-05-17T11:46:26.172Z,2.67
2023-05-17T11:48:55.070Z,1.95
2023-05-17T11:51:25.166Z,1.90
2023-05-17T11:53:56.198Z,2.25
2023-05-17T11:56:35.689Z,2.42
2023-05-17T11:59:10.916Z,2.78
2023-05-17T12:01:47.570Z,1.90
2023-05-17T12:04:16.410Z,2.40
2023-05-17T12:06:46.546Z,2.40
2023-05-17T12:09:17.879Z,2.78
2023-05-17T12:11:47.961Z,2.60
2023-05-17T12:14:17.837Z,2.30
2023-05-17T12:16:49.617Z,2.85
2023-05-17T12:19:21.402Z,2.53
2023-05-17T12:21:50.102Z,2.28
2023-05-17T12:24:18.675Z,3.08
2023-05-17T12:26:48.332Z,3.05
2023-05-17T12:29:18.341Z,2.20
2023-05-17T12:31:50.245Z,2.00
2023-05-17T12:34:19.375Z,1.92
2023-05-17T12:36:48.439Z,1.92
2023-05-17T12:39:18.245Z,2.40
2023-05-17T12:41:46.928Z,2.53
2023-05-17T12:44:16.520Z,2.63
2023-05-17T12:46:45.750Z,2.45
2023-05-17T12:49:15.695Z,2.17
2023-05-17T12:51:44.855Z,2.50
2023-05-17T12:54:13.875Z,2.53
2023-05-17T12:56:43.994Z,2.17
2023-05-17T12:59:14.018Z,2.50
2023-05-17T13:01:44.523Z,1.90
2023-05-17T13:04:14.051Z,2.40
2023-05-17T13:06:48.371Z,1.90
2023-05-17T13:09:18.446Z,2.42
2023-05-17T13:11:52.387Z,2.50
2023-05-17T13:14:35.377Z,2.25
2023-05-17T13:17:04.204Z,2.17
2023-05-17T13:19:33.130Z,2.58
2023-05-17T13:22:03.453Z,2.17
2023-05-17T13:24:32.784Z,2.50
2023-05-17T13:27:01.432Z,2.60
2023-05-17T13:29:38.687Z,2.08
2023-05-17T13:32:08.422Z,2.05
2023-05-17T13:34:37.099Z,2.30
2023-05-17T13:37:09.580Z,2.47
2023-05-17T13:39:40.615Z,1.98
2023-05-17T13:42:09.776Z,2.58
2023-05-17T13:44:39.112Z,2.30
2023-05-17T13:47:08.150Z,2.72
2023-05-17T13:49:37.439Z,2.50
2023-05-17T13:52:09.054Z,2.00
2023-05-17T13:54:38.189Z,2.10
2023-05-17T13:57:07.759Z,2.00
2023-05-17T13:59:36.712Z,2.20
2023-05-17T14:02:05.656Z,2.25
2023-05-17T14:04:35.083Z,2.35
2023-05-17T14:07:04.091Z,2.20
2023-05-17T14:09:35.534Z,2.40
2023-05-17T14:12:04.325Z,2.08
2023-05-17T14:14:33.133Z,2.30
2023-05-17T14:17:02.648Z,2.10
2023-05-17T14:19:31.273Z,2.10
2023-05-17T14:21:59.892Z,2.53
2023-05-17T14:24:28.374Z,2.13
2023-05-17T14:26:58.767Z,2.50
2023-05-17T14:29:27.412Z,2.60
2023-05-17T14:31:55.953Z,2.28
2023-05-17T14:34:24.634Z,2.50
2023-05-17T14:36:53.614Z,2.13
2023-05-17T14:39:22.155Z,2.25
2023-05-17T14:41:50.789Z,2.60
2023-05-17T14:44:20.666Z,2.95
2023-05-17T14:46:49.127Z,2.70
2023-05-17T14:49:17.737Z,1.95
2023-05-17T14:51:46.544Z,2.50
2023-05-17T14:54:15.086Z,2.13
2023-05-17T14:56:43.583Z,2.60
2023-05-17T14:59:12.714Z,2.15
2023-05-17T15:01:42.628Z,2.42
2023-05-17T15:04:11.449Z,2.35
2023-05-17T15:06:40.030Z,2.20
2023-05-17T15:09:09.837Z,2.63
2023-05-17T15:11:38.298Z,2.17
2023-05-17T15:14:07.080Z,2.55
2023-05-17T15:16:36.091Z,2.80
2023-05-17T15:19:06.633Z,2.20
2023-05-17T15:21:35.363Z,2.58
2023-05-17T15:24:04.033Z,2.85
2023-05-17T15:26:32.552Z,2.42
2023-05-17T15:29:01.115Z,2.70
2023-05-17T15:31:29.826Z,2.50
2023-05-17T15:33:59.240Z,2.60
2023-05-17T15:36:29.305Z,2.60
2023-05-17T15:38:57.832Z,2.72
2023-05-17T15:41:29.804Z,2.28
2023-05-17T15:43:58.592Z,2.58
2023-05-17T15:46:27.197Z,2.38
2023-05-17T15:48:57.080Z,2.60
2023-05-17T15:51:25.681Z,2.65
2023-05-17T15:53:55.672Z,2.75
2023-05-17T15:56:24.282Z,2.80
2023-05-17T15:58:53.163Z,2.70
2023-05-17T16:01:21.691Z,2.75
2023-05-17T16:03:50.525Z,3.25
2023-05-17T16:06:19.715Z,3.17
2023-05-17T16:08:48.414Z,2.80
2023-05-17T16:11:18.260Z,2.85
2023-05-17T16:13:46.951Z,3.15
2023-05-17T16:16:15.522Z,2.50
2023-05-17T16:18:44.181Z,2.80
2023-05-17T16:21:13.701Z,2.67
2023-05-17T16:23:42.345Z,2.75
2023-05-17T16:26:10.880Z,2.67
2023-05-17T16:28:40.980Z,2.50
2023-05-17T16:31:09.592Z,3.00
2023-05-17T16:33:38.364Z,3.03
2023-05-17T16:36:07.338Z,3.13
2023-05-17T16:38:35.915Z,2.45
2023-05-17T16:41:04.475Z,2.83
2023-05-17T16:43:33.456Z,2.40
2023-05-17T16:46:03.514Z,3.00
2023-05-17T16:48:32.207Z,2.85
2023-05-17T16:51:00.733Z,2.47
2023-05-17T16:53:29.380Z,2.45
2023-05-17T16:55:57.986Z,2.95
2023-05-17T16:58:27.129Z,2.97
2023-05-17T17:00:55.780Z,2.63
2023-05-17T17:03:25.994Z,2.42
2023-05-17T17:05:54.701Z,2.45
2023-05-17T17:08:23.220Z,2.50
2023-05-17T17:10:51.728Z,2.90
2023-05-17T17:13:20.624Z,3.08
2023-05-17T17:15:51.065Z,2.83
2023-05-17T17:18:19.852Z,2.80
2023-05-17T17:20:49.716Z,2.80
2023-05-17T17:23:18.212Z,2.92
2023-05-17T17:25:46.849Z,2.67
2023-05-17T17:28:15.385Z,3.10
2023-05-17T17:30:43.888Z,2.63
2023-05-17T17:33:12.499Z,2.60
2023-05-17T17:35:41.181Z,2.80
2023-05-17T17:38:14.436Z,2.97
2023-05-17T17:40:43.113Z,2.97
2023-05-17T17:43:11.774Z,3.08
2023-05-17T17:45:40.448Z,3.05
2023-05-17T17:48:09.222Z,2.50
2023-05-17T17:50:37.879Z,2.90
2023-05-17T17:53:06.634Z,2.92
2023-05-17T17:55:36.718Z,2.80
2023-05-17T17:58:05.553Z,2.83
2023-05-17T18:00:34.397Z,3.03
2023-05-17T18:03:03.202Z,3.03
2023-05-17T18:05:32.841Z,2.53
2023-05-17T18:08:01.524Z,2.50
2023-05-17T18:10:31.402Z,2.88
2023-05-17T18:13:01.712Z,2.40
2023-05-17T18:15:30.280Z,2.75
2023-05-17T18:17:58.854Z,2.70
2023-05-17T18:20:27.576Z,2.88
2023-05-17T18:22:56.222Z,3.03
2023-05-17T18:25:24.865Z,3.28
2023-05-17T18:27:53.337Z,2.78
2023-05-17T18:30:25.383Z,2.83
2023-05-17T18:32:53.955Z,2.80
2023-05-17T18:35:22.578Z,2.67
2023-05-17T18:37:51.173Z,2.60
2023-05-17T18:40:20.136Z,2.65
2023-05-17T18:42:48.651Z,2.95
2023-05-17T18:45:17.324Z,2.60
2023-05-17T18:47:47.326Z,3.20
2023-05-17T18:50:15.933Z,2.60
2023-05-17T18:52:44.693Z,2.30
2023-05-17T18:55:13.700Z,2.53
2023-05-17T18:57:43.054Z,3.05
2023-05-17T19:00:13.701Z,2.90
2023-05-17T19:02:42.302Z,2.55
2023-05-17T19:05:12.581Z,3.13
2023-05-17T19:07:41.168Z,2.72
2023-05-17T19:10:10.316Z,2.92
2023-05-17T19:12:38.985Z,2.25
2023-05-17T19:15:09.860Z,2.60
2023-05-17T19:17:38.510Z,3.00
2023-05-17T19:20:07.480Z,3.00
2023-05-17T19:22:37.595Z,2.53
2023-05-17T19:25:06.682Z,2.67
2023-05-17T19:27:35.158Z,2.60
2023-05-17T19:30:03.839Z,3.10
2023-05-17T19:32:33.166Z,2.80
2023-05-17T19:35:02.355Z,2.65
2023-05-17T19:37:30.856Z,2.67
2023-05-17T19:40:01.338Z,2.85
2023-05-17T19:42:29.944Z,2.92
2023-05-17T19:44:58.577Z,2.90
2023-05-17T19:47:27.118Z,2.60
2023-05-17T19:49:56.052Z,2.90
2023-05-17T19:52:24.625Z,3.00
2023-05-17T19:54:53.223Z,3.75
2023-05-17T19:57:23.469Z,2.63
2023-05-17T19:59:52.365Z,3.03
2023-05-17T20:02:21.326Z,2.83
2023-05-17T20:04:50.129Z,3.55
2023-05-17T20:07:18.641Z,2.83
2023-05-17T20:09:47.153Z,2.92
2023-05-17T20:12:15.852Z,2.70
2023-05-17T20:14:45.740Z,2.70
2023-05-17T20:17:14.294Z,3.30
2023-05-17T20:19:43.127Z,2.65
2023-05-17T20:22:11.882Z,2.97
2023-05-17T20:24:40.681Z,2.53
2023-05-17T20:27:09.217Z,2.70
2023-05-17T20:29:38.288Z,2.65
2023-05-17T20:32:08.693Z,2.97
2023-05-17T20:34:37.414Z,2.58
2023-05-17T20:37:06.260Z,2.88
2023-05-17T20:39:34.732Z,2.38
2023-05-17T20:42:03.519Z,3.15
2023-05-17T20:44:33.353Z,3.03
2023-05-17T20:47:02.005Z,3.25
2023-05-17T20:49:32.030Z,3.28
2023-05-17T20:52:03.518Z,3.13
2023-05-17T20:54:32.270Z,2.65
2023-05-17T20:57:00.850Z,3.20
2023-05-17T20:59:29.983Z,3.20
2023-05-17T21:01:58.903Z,2.80
2023-05-17T21:04:30.141Z,3.58
2023-05-17T21:07:00.619Z,3.00
2023-05-17T21:09:29.442Z,4.50
2023-05-17T21:11:58.136Z,3.35
2023-05-17T21:14:26.895Z,3.90
2023-05-17T21:16:56.215Z,2.80
2023-05-17T21:19:25.265Z,2.80
2023-05-17T21:21:54.204Z,2.75
2023-05-17T21:24:24.394Z,2.72
2023-05-17T21:26:55.495Z,2.72
2023-05-17T21:29:24.125Z,3.00
2023-05-17T21:31:52.746Z,2.78
2023-05-17T21:34:21.333Z,2.60
2023-05-17T21:36:56.521Z,2.97
2023-05-17T21:39:27.151Z,2.90
2023-05-17T21:41:55.656Z,2.45
2023-05-17T21:44:24.810Z,2.50
2023-05-17T21:46:53.709Z,2.53
2023-05-17T21:49:22.369Z,2.92
2023-05-17T21:51:50.979Z,2.63
2023-05-17T21:54:19.744Z,2.47
2023-05-17T21:56:49.818Z,2.50
2023-05-17T21:59:18.597Z,2.55
2023-05-17T22:01:47.328Z,2.75
2023-05-17T22:04:16.052Z,2.75
2023-05-17T22:06:44.591Z,2.30
2023-05-17T22:09:13.134Z,2.58
2023-05-17T22:11:41.640Z,2.80
2023-05-17T22:14:11.874Z,2.65
2023-05-17T22:16:40.576Z,2.63
2023-05-17T22:19:09.122Z,2.78
2023-05-17T22:21:37.710Z,2.92
2023-05-17T22:24:06.929Z,2.80
2023-05-17T22:26:35.547Z,2.25
2023-05-17T22:29:04.021Z,2.35
2023-05-17T22:31:37.819Z,2.97
2023-05-17T22:34:06.709Z,2.92
2023-05-17T22:36:35.481Z,2.78
2023-05-17T22:39:05.323Z,2.90
2023-05-17T22:41:33.971Z,3.25
2023-05-17T22:44:02.488Z,2.90
2023-05-17T22:46:32.060Z,2.90
2023-05-17T22:49:01.985Z,3.70
2023-05-17T22:51:35.101Z,2.80
2023-05-17T22:54:04.062Z,2.95
2023-05-17T22:56:32.569Z,2.75
2023-05-17T22:59:01.100Z,3.20
2023-05-17T23:01:29.677Z,2.60
2023-05-17T23:03:58.665Z,2.45
2023-05-17T23:06:32.179Z,2.80
2023-05-17T23:09:02.669Z,2.47
2023-05-17T23:11:31.170Z,2.80
2023-05-17T23:14:00.843Z,2.78
2023-05-17T23:16:29.409Z,2.50
2023-05-17T23:18:58.228Z,2.63
2023-05-17T23:21:28.251Z,2.92
2023-05-17T23:23:57.013Z,2.55
2023-05-17T23:26:25.817Z,3.00
2023-05-17T23:28:54.331Z,2.88
2023-05-17T23:31:22.991Z,2.50
2023-05-17T23:33:51.721Z,3.13
2023-05-17T23:36:21.700Z,2.65
2023-05-17T23:38:51.552Z,3.00
2023-05-17T23:41:23.853Z,3.30
2023-05-17T23:43:52.754Z,2.90
2023-05-17T23:46:22.232Z,3.42
2023-05-17T23:48:51.229Z,2.92
2023-05-17T23:51:20.818Z,2.83
2023-05-17T23:53:49.832Z,2.47
2023-05-17T23:56:19.943Z,2.60
2023-05-17T23:58:48.588Z,2.95
